.
WxDataArchive / Data Records for 2013-09-02
2013-09-01 September 2013 2013-09-03

Data Records for Monday, 02 September 2013

Time	Temp	Chill	HIndex	Humid	Dewpt	 Wind 	HiWind	WindDir	Rain 	Barom 
-----	----	-----	------	-----	-----	------	------	-------	-----	----- 
00:00	72.5	72.5	72.5	89	69.1	0	1	248	0.00	29.753 
00:05	72.3	72.3	72.3	89	68.9	0	0	---	0.00	29.753 
00:10	72.1	72.1	72.1	89	68.7	0	0	---	0.00	29.753 
00:15	72.0	72.0	72.0	89	68.6	0	1	248	0.00	29.757 
00:20	72.0	72.0	72.0	90	68.9	0	0	---	0.00	29.757 
00:25	71.8	71.8	71.8	90	68.7	0	2	248	0.00	29.757 
00:30	71.8	71.8	71.8	90	68.7	0	1	248	0.00	29.760 
00:35	71.6	71.6	71.6	90	68.5	0	1	248	0.00	29.760 
00:40	71.6	71.6	71.6	91	68.8	0	0	---	0.00	29.760 
00:45	71.5	71.5	71.5	91	68.7	0	1	248	0.00	29.761 
00:50	71.3	71.3	71.3	91	68.5	0	0	---	0.00	29.761 
00:55	71.3	71.3	71.3	91	68.5	0	0	---	0.00	29.761 
01:00	71.1	71.1	71.1	91	68.3	0	0	---	0.00	29.747 
01:05	70.8	70.8	70.8	91	68.0	0	0	---	0.00	29.747 
01:10	70.6	70.6	70.6	91	67.8	0	1	248	0.00	29.747 
01:15	70.4	70.4	70.4	92	68.0	0	0	---	0.00	29.745 
01:20	70.3	70.3	70.3	92	67.9	0	0	---	0.00	29.745 
01:25	70.1	70.1	70.1	92	67.7	0	0	---	0.00	29.745 
01:30	70.1	70.1	70.1	92	67.7	0	0	---	0.00	29.744 
01:35	69.9	69.9	69.9	92	67.5	0	0	---	0.00	29.744 
01:40	69.8	69.8	69.8	92	67.4	0	0	---	0.00	29.744 
01:45	69.8	69.8	69.8	93	67.7	0	0	---	0.00	29.751 
01:50	69.6	69.6	69.6	93	67.5	0	0	---	0.00	29.751 
01:55	69.8	69.8	69.8	93	67.7	0	0	---	0.00	29.751 
02:00	69.6	69.6	69.6	93	67.5	0	0	---	0.00	29.743 
02:05	69.6	69.6	69.6	93	67.5	0	0	---	0.00	29.743 
02:10	69.4	69.4	69.4	93	67.3	0	0	---	0.00	29.743 
02:15	69.3	69.3	69.3	93	67.2	0	0	---	0.00	29.737 
02:20	69.1	69.1	69.1	93	67.0	0	0	---	0.00	29.737 
02:25	68.9	68.9	68.9	93	66.8	0	0	---	0.00	29.737 
02:30	68.8	68.8	68.8	93	66.7	0	0	---	0.00	29.732 
02:35	68.8	68.8	68.8	94	67.0	0	0	---	0.00	29.732 
02:40	68.8	68.8	68.8	94	67.0	0	1	248	0.00	29.732 
02:45	68.8	68.8	68.8	94	67.0	0	0	---	0.00	29.748 
02:50	68.9	68.9	68.9	94	67.1	0	0	---	0.00	29.748 
02:55	69.1	69.1	69.1	94	67.3	0	1	248	0.00	29.748 
03:00	69.3	69.3	69.3	94	67.5	0	0	---	0.00	29.747 
03:05	69.3	69.3	69.3	94	67.5	0	0	---	0.00	29.747 
03:10	69.4	69.4	69.4	94	67.6	0	0	---	0.00	29.747 
03:15	69.4	69.4	69.4	94	67.6	0	0	---	0.00	29.739 
03:20	69.4	69.4	69.4	94	67.6	0	0	---	0.00	29.739 
03:25	69.4	69.4	69.4	94	67.6	0	0	---	0.00	29.739 
03:30	69.4	69.4	69.4	95	67.9	0	1	248	0.00	29.743 
03:35	69.4	69.4	69.4	95	67.9	0	0	---	0.00	29.743 
03:40	69.4	69.4	69.4	94	67.6	0	0	---	0.00	29.743 
03:45	69.6	69.6	69.6	94	67.8	0	0	---	0.00	29.744 
03:50	69.4	69.4	69.4	95	67.9	0	0	---	0.00	29.744 
03:55	69.4	69.4	69.4	94	67.6	0	0	---	0.00	29.744 
04:00	69.4	69.4	69.4	94	67.6	0	0	---	0.00	29.742 
04:05	69.3	69.3	69.3	94	67.5	0	0	---	0.00	29.742 
04:10	69.1	69.1	69.1	94	67.3	0	0	---	0.00	29.742 
04:15	68.9	68.9	68.9	94	67.1	0	0	---	0.00	29.742 
04:20	68.9	68.9	68.9	94	67.1	0	0	---	0.00	29.742 
04:25	68.9	68.9	68.9	95	67.4	0	0	---	0.00	29.742 
04:30	68.8	68.8	68.8	94	67.0	0	0	---	0.00	29.734 
04:35	68.6	68.6	68.6	94	66.8	0	0	---	0.00	29.734 
04:40	68.6	68.6	68.6	94	66.8	0	0	---	0.00	29.734 
04:45	68.6	68.6	68.6	95	67.1	0	0	---	0.00	29.735 
04:50	68.4	68.4	68.4	95	66.9	0	0	---	0.00	29.735 
04:55	68.4	68.4	68.4	95	66.9	0	0	---	0.00	29.735 
05:00	68.6	68.6	68.6	95	67.1	0	0	---	0.00	29.733 
05:05	68.4	68.4	68.4	95	66.9	0	0	---	0.00	29.733 
05:10	68.4	68.4	68.4	95	66.9	0	1	248	0.00	29.733 
05:15	68.4	68.4	68.4	95	66.9	0	0	---	0.00	29.743 
05:20	68.6	68.6	68.6	95	67.1	0	0	---	0.00	29.743 
05:25	68.8	68.8	68.8	95	67.3	0	0	---	0.00	29.743 
05:30	68.8	68.8	68.8	95	67.3	0	0	---	0.00	29.743 
05:35	68.8	68.8	68.8	95	67.3	0	0	---	0.00	29.743 
05:40	68.9	68.9	68.9	95	67.4	0	0	---	0.00	29.743 
05:45	68.9	68.9	68.9	95	67.4	0	0	---	0.00	29.745 
05:50	68.9	68.9	68.9	95	67.4	0	0	---	0.00	29.745 
05:55	69.1	69.1	69.1	95	67.6	0	0	---	0.00	29.745 
06:00	69.1	69.1	69.1	95	67.6	0	0	---	0.00	29.745 
06:05	69.1	69.1	69.1	95	67.6	0	0	---	0.00	29.745 
06:10	69.3	69.3	69.3	95	67.8	0	0	---	0.00	29.745 
06:15	69.3	69.3	69.3	95	67.8	0	0	---	0.00	29.750 
06:20	69.3	69.3	69.3	95	67.8	0	0	---	0.00	29.750 
06:25	69.4	69.4	69.4	95	67.9	0	0	---	0.00	29.750 
06:30	69.4	69.4	69.4	95	67.9	0	0	---	0.00	29.758 
06:35	69.4	69.4	69.4	95	67.9	0	0	---	0.00	29.758 
06:40	69.4	69.4	69.4	95	67.9	0	0	---	0.00	29.758 
06:45	69.4	69.4	69.4	95	67.9	0	0	---	0.00	29.757 
06:50	69.4	69.4	69.4	95	67.9	0	0	---	0.00	29.757 
06:55	69.4	69.4	69.4	95	67.9	0	0	---	0.00	29.757 
07:00	69.4	69.4	69.4	95	67.9	0	0	---	0.00	29.760 
07:05	69.4	69.4	69.4	95	67.9	0	0	---	0.00	29.760 
07:10	69.6	69.6	69.6	95	68.1	0	0	---	0.00	29.760 
07:15	69.6	69.6	69.6	95	68.1	0	0	---	0.00	29.767 
07:20	69.6	69.6	69.6	95	68.1	0	0	---	0.00	29.767 
07:25	69.6	69.6	69.6	95	68.1	0	0	---	0.00	29.767 
07:30	69.6	69.6	69.6	95	68.1	0	0	---	0.00	29.774 
07:35	69.6	69.6	69.6	95	68.1	0	0	---	0.00	29.774 
07:40	69.6	69.6	69.6	95	68.1	0	0	---	0.00	29.774 
07:45	69.6	69.6	69.6	95	68.1	0	0	---	0.00	29.776 
07:50	69.6	69.6	69.6	95	68.1	0	0	---	0.00	29.776 
07:55	69.8	69.8	69.8	95	68.3	0	0	---	0.00	29.776 
08:00	69.9	69.9	69.9	95	68.4	0	1	248	0.00	29.777 
08:05	70.1	70.1	70.1	95	68.6	0	1	248	0.00	29.777 
08:10	70.1	70.1	70.1	95	68.6	0	1	248	0.00	29.777 
08:15	70.3	70.3	70.3	95	68.8	0	1	248	0.00	29.789 
08:20	70.3	70.3	70.3	95	68.8	0	2	248	0.00	29.789 
08:25	70.3	70.3	70.3	94	68.5	0	1	248	0.00	29.789 
08:30	70.3	70.3	70.3	94	68.5	0	1	248	0.00	29.789 
08:35	70.3	70.3	70.3	94	68.5	0	2	248	0.00	29.789 
08:40	70.3	70.3	70.3	94	68.5	0	2	248	0.00	29.789 
08:45	70.3	70.3	70.3	94	68.5	0	2	248	0.00	29.789 
08:50	70.4	70.4	70.4	94	68.6	0	1	248	0.00	29.789 
08:55	70.6	70.6	70.6	93	68.5	0	1	248	0.00	29.789 
09:00	70.6	70.6	70.6	93	68.5	0	4	315	0.00	29.792 
09:05	70.6	70.6	70.6	93	68.5	0	2	315	0.00	29.792 
09:10	70.6	70.6	70.6	92	68.2	0	3	315	0.00	29.792 
09:15	70.6	70.6	70.6	92	68.2	0	3	315	0.00	29.794 
09:20	70.6	70.6	70.6	91	67.8	0	2	315	0.00	29.794 
09:25	70.6	70.6	70.6	91	67.8	0	2	315	0.00	29.794 
09:30	70.4	70.4	70.4	90	67.3	1	4	315	0.00	29.803 
09:35	70.4	70.4	70.4	90	67.3	1	4	315	0.00	29.803 
09:40	70.6	70.6	70.6	90	67.5	0	2	315	0.00	29.803 
09:45	70.9	70.9	70.9	89	67.5	1	3	315	0.00	29.807 
09:50	71.1	71.1	71.1	88	67.4	1	4	315	0.00	29.807 
09:55	71.1	71.1	71.1	87	67.0	2	5	338	0.00	29.807 
10:00	71.1	71.1	71.1	87	67.0	1	2	338	0.00	29.814 
10:05	70.9	70.9	70.9	86	66.5	2	6	315	0.00	29.814 
10:10	71.1	71.1	71.1	86	66.7	1	4	315	0.00	29.814 
10:15	71.1	71.1	71.1	86	66.7	1	2	315	0.00	29.823 
10:20	71.5	71.5	71.5	85	66.7	0	2	315	0.00	29.823 
10:25	72.0	72.0	72.0	84	66.9	1	4	315	0.00	29.823 
10:30	73.2	73.2	73.2	82	67.4	1	2	315	0.00	29.824 
10:35	73.5	73.5	73.5	77	65.8	2	5	315	0.00	29.824 
10:40	74.0	74.0	74.0	73	64.8	1	5	315	0.00	29.824 
10:45	74.4	74.4	74.4	70	64.0	2	7	315	0.00	29.828 
10:50	74.7	74.7	74.7	69	63.8	2	5	338	0.00	29.828 
10:55	75.1	75.1	77.0	67	63.4	2	5	315	0.00	29.828 
11:00	75.4	75.4	77.3	66	63.2	1	6	338	0.00	29.834 
11:05	75.8	75.8	77.7	66	63.6	1	6	315	0.00	29.834 
11:10	76.1	76.1	78.0	64	63.0	2	4	315	0.00	29.834 
11:15	75.8	75.8	77.6	67	64.0	1	4	315	0.00	29.836 
11:20	76.0	76.0	77.8	67	64.2	2	5	315	0.00	29.836 
11:25	76.8	76.8	78.6	63	63.2	1	3	338	0.00	29.836 
11:30	77.4	77.4	79.1	61	62.9	1	3	315	0.00	29.837 
11:35	76.7	76.7	78.5	60	61.7	2	4	315	0.00	29.837 
11:40	77.0	77.0	78.8	61	62.5	2	5	315	0.00	29.837 
11:45	76.3	76.3	78.2	62	62.3	2	4	315	0.00	29.841 
11:50	76.1	76.1	78.0	62	62.1	1	3	315	0.00	29.841 
11:55	77.0	77.0	78.8	60	62.0	2	4	315	0.00	29.841 
12:00	77.4	77.4	79.1	59	61.9	1	5	315	0.00	29.840 
12:05	76.8	76.8	78.6	60	61.8	2	5	338	0.00	29.840 
12:10	76.8	76.8	78.6	60	61.8	2	5	338	0.00	29.840 
12:15	77.6	77.6	79.3	60	62.6	0	3	338	0.00	29.842 
12:20	78.1	78.1	79.6	57	61.6	2	5	338	0.00	29.842 
12:25	77.9	77.9	79.5	59	62.4	1	3	338	0.00	29.842 
12:30	78.1	78.1	79.5	55	60.6	1	4	338	0.00	29.841 
12:35	78.5	78.5	79.6	51	58.8	2	3	315	0.00	29.841 
12:40	78.8	78.8	79.9	51	59.1	2	6	315	0.00	29.841 
12:45	79.0	79.0	80.2	53	60.4	1	3	315	0.00	29.838 
12:50	79.2	79.2	80.1	50	58.9	2	5	292	0.00	29.838 
12:55	79.4	79.4	80.4	51	59.7	2	5	292	0.00	29.838 
13:00	79.2	79.2	80.0	48	57.8	3	5	292	0.00	29.838 
13:05	79.2	79.2	80.1	49	58.4	3	5	315	0.00	29.838 
13:10	79.2	79.2	80.0	48	57.8	2	4	338	0.00	29.838 
13:15	79.4	79.4	80.1	47	57.4	3	5	292	0.00	29.841 
13:20	79.6	79.6	80.4	49	58.7	2	4	315	0.00	29.841 
13:25	79.9	79.9	80.5	48	58.4	1	4	0	0.00	29.841 
13:30	79.9	79.9	80.3	45	56.6	3	6	315	0.00	29.838 
13:35	79.8	79.8	80.3	46	57.2	3	5	338	0.00	29.838 
13:40	79.9	79.9	80.4	46	57.2	2	4	315	0.00	29.838 
13:45	80.3	80.3	80.8	47	58.2	2	5	0	0.00	29.837 
13:50	80.7	80.7	80.9	45	57.4	2	4	338	0.00	29.837 
13:55	81.1	81.1	81.0	43	56.5	2	5	315	0.00	29.837 
14:00	80.5	80.5	80.6	43	55.9	3	7	292	0.00	29.836 
14:05	80.3	80.3	80.5	44	56.4	3	6	292	0.00	29.836 
14:10	80.5	80.5	80.7	45	57.2	2	6	338	0.00	29.836 
14:15	80.7	80.7	80.7	43	56.1	2	5	338	0.00	29.835 
14:20	80.1	80.1	80.3	44	56.2	2	5	315	0.00	29.835 
14:25	80.9	80.9	81.1	45	57.5	2	5	338	0.00	29.835 
14:30	80.3	80.3	80.6	45	57.0	2	6	338	0.00	29.838 
14:35	80.9	80.9	81.1	45	57.5	2	6	315	0.00	29.838 
14:40	80.7	80.7	80.7	43	56.1	3	9	315	0.00	29.838 
14:45	80.3	80.3	80.5	44	56.4	2	9	315	0.00	29.837 
14:50	80.1	80.1	80.3	43	55.6	2	6	338	0.00	29.837 
14:55	79.9	79.9	80.2	44	56.0	2	5	292	0.00	29.837 
15:00	79.9	79.9	80.1	43	55.4	2	5	315	0.00	29.835 
15:05	79.4	79.4	79.8	44	55.6	2	5	338	0.00	29.835 
15:10	78.8	78.8	79.4	43	54.4	3	5	315	0.00	29.835 
15:15	79.4	79.4	79.8	44	55.6	2	6	338	0.00	29.829 
15:20	80.5	80.5	80.7	45	57.2	2	5	292	0.00	29.829 
15:25	81.1	81.1	80.7	40	54.5	3	5	292	0.00	29.829 
15:30	81.1	81.1	80.7	40	54.5	3	7	292	0.00	29.822 
15:35	80.3	80.3	80.2	41	54.4	3	5	292	0.00	29.822 
15:40	80.7	80.7	80.5	41	54.8	3	7	338	0.00	29.822 
15:45	81.2	81.2	80.6	38	53.1	3	5	315	0.00	29.821 
15:50	81.6	81.6	81.1	40	54.9	3	9	292	0.00	29.821 
15:55	81.4	81.4	80.9	39	54.0	3	7	292	0.00	29.821 
16:00	81.1	81.1	80.8	41	55.1	3	7	315	0.00	29.822 
16:05	81.2	81.2	81.1	43	56.5	2	5	315	0.00	29.822 
16:10	81.4	81.4	81.1	41	55.4	3	6	315	0.00	29.822 
16:15	80.1	80.1	80.1	41	54.2	4	7	315	0.00	29.823 
16:20	79.6	79.6	79.8	42	54.5	2	6	315	0.00	29.823 
16:25	79.2	79.2	79.6	43	54.7	2	7	292	0.00	29.823 
16:30	79.8	79.8	80.0	43	55.3	2	5	270	0.00	29.823 
16:35	80.1	80.1	80.2	42	54.9	3	5	315	0.00	29.823 
16:40	79.4	79.4	79.8	43	54.9	2	5	338	0.00	29.823 
16:45	79.2	79.2	79.6	43	54.7	3	7	292	0.00	29.823 
16:50	78.8	78.8	79.4	43	54.4	2	9	292	0.00	29.823 
16:55	78.6	78.6	79.3	44	54.8	2	6	315	0.00	29.823 
17:00	78.5	78.5	79.2	44	54.7	2	7	292	0.00	29.821 
17:05	78.3	78.3	79.1	43	53.9	2	6	270	0.00	29.821 
17:10	77.9	77.9	78.9	45	54.8	3	7	315	0.00	29.821 
17:15	78.5	78.5	79.4	46	56.0	2	6	315	0.00	29.819 
17:20	79.2	79.2	79.6	43	54.7	2	5	315	0.00	29.819 
17:25	79.8	79.8	80.0	42	54.6	1	4	315	0.00	29.819 
17:30	79.2	79.2	79.6	43	54.7	2	7	338	0.00	29.822 
17:35	79.2	79.2	79.7	44	55.4	3	9	292	0.00	29.822 
17:40	79.0	79.0	79.6	44	55.2	2	6	292	0.00	29.822 
17:45	78.5	78.5	79.4	46	56.0	3	7	338	0.00	29.822 
17:50	78.6	78.6	79.4	45	55.5	2	4	315	0.00	29.822 
17:55	77.9	77.9	79.0	46	55.4	3	7	338	0.00	29.822 
18:00	77.2	77.2	78.6	47	55.4	3	7	292	0.00	29.826 
18:05	77.0	77.0	78.5	47	55.2	3	7	315	0.00	29.826 
18:10	77.2	77.2	78.6	46	54.8	2	5	315	0.00	29.826 
18:15	77.6	77.6	78.8	46	55.2	2	4	270	0.00	29.826 
18:20	77.6	77.6	78.8	45	54.6	3	6	292	0.00	29.826 
18:25	77.2	77.2	78.6	46	54.8	2	5	292	0.00	29.826 
18:30	76.7	76.7	78.4	47	54.9	2	4	315	0.00	29.828 
18:35	76.5	76.5	78.3	47	54.7	2	8	315	0.00	29.828 
18:40	76.5	76.5	78.3	48	55.3	1	3	338	0.00	29.828 
18:45	76.5	76.5	78.3	48	55.3	2	5	315	0.00	29.828 
18:50	76.3	76.3	78.2	48	55.1	2	6	315	0.00	29.828 
18:55	76.1	76.1	78.1	49	55.5	3	6	338	0.00	29.828 
19:00	75.8	75.8	78.0	49	55.3	2	5	338	0.00	29.839 
19:05	75.4	75.4	77.8	49	54.9	1	5	338	0.00	29.839 
19:10	75.1	75.1	77.7	49	54.6	2	5	292	0.00	29.839 
19:15	74.9	74.9	74.9	50	55.0	2	5	315	0.00	29.840 
19:20	74.7	74.7	74.7	50	54.8	1	3	315	0.00	29.840 
19:25	74.4	74.4	74.4	50	54.5	2	7	315	0.00	29.840 
19:30	74.0	74.0	74.0	51	54.7	2	6	338	0.00	29.843 
19:35	73.9	73.9	73.9	51	54.6	2	6	338	0.00	29.843 
19:40	73.7	73.7	73.7	52	55.0	1	3	338	0.00	29.843 
19:45	73.3	73.3	73.3	53	55.1	1	2	315	0.00	29.845 
19:50	73.2	73.2	73.2	53	55.0	0	3	315	0.00	29.845 
19:55	72.8	72.8	72.8	53	54.7	0	2	315	0.00	29.845 
20:00	72.5	72.5	72.5	55	55.4	1	3	315	0.00	29.853 
20:05	72.1	72.1	72.1	56	55.5	1	3	315	0.00	29.853 
20:10	71.6	71.6	71.6	57	55.5	1	5	315	0.00	29.853 
20:15	71.3	71.3	71.3	58	55.7	0	2	315	0.00	29.854 
20:20	70.9	70.9	70.9	59	55.8	0	4	315	0.00	29.854 
20:25	70.8	70.8	70.8	60	56.2	0	3	315	0.00	29.854 
20:30	70.4	70.4	70.4	61	56.3	0	1	315	0.00	29.862 
20:35	69.9	69.9	69.9	62	56.3	0	3	315	0.00	29.862 
20:40	69.6	69.6	69.6	63	56.4	0	2	315	0.00	29.862 
20:45	69.3	69.3	69.3	64	56.6	1	3	315	0.00	29.874 
20:50	69.1	69.1	69.1	64	56.4	1	6	315	0.00	29.874 
20:55	68.8	68.8	68.8	65	56.5	1	3	338	0.00	29.874 
21:00	68.4	68.4	68.4	65	56.2	1	3	315	0.00	29.882 
21:05	68.1	68.1	68.1	66	56.3	1	4	315	0.00	29.882 
21:10	67.8	67.8	67.8	66	56.0	1	4	338	0.00	29.882 
21:15	67.4	67.4	67.4	66	55.6	1	4	315	0.00	29.894 
21:20	67.1	67.1	67.1	67	55.8	1	4	315	0.00	29.894 
21:25	66.8	66.8	66.8	67	55.5	1	2	315	0.00	29.894 
21:30	66.6	66.6	66.6	68	55.7	1	4	315	0.00	29.894 
21:35	66.3	66.3	66.3	68	55.4	0	2	315	0.00	29.894 
21:40	66.1	66.1	66.1	68	55.2	1	5	315	0.00	29.894 
21:45	66.0	66.0	66.0	69	55.5	0	3	292	0.00	29.900 
21:50	65.8	65.8	65.8	69	55.3	0	2	292	0.00	29.900 
21:55	65.6	65.6	65.6	69	55.1	0	2	292	0.00	29.900 
22:00	65.5	65.5	65.5	70	55.4	0	1	292	0.00	29.903 
22:05	65.3	65.3	65.3	70	55.3	0	1	292	0.00	29.903 
22:10	65.2	65.2	65.2	71	55.6	0	2	292	0.00	29.903 
22:15	65.0	65.0	65.0	71	55.4	0	3	292	0.00	29.907 
22:20	64.8	64.8	64.8	72	55.6	0	1	292	0.00	29.907 
22:25	64.7	64.7	64.7	72	55.5	0	3	292	0.00	29.907 
22:30	64.5	64.5	64.5	73	55.6	0	2	292	0.00	29.908 
22:35	64.2	64.2	64.2	73	55.4	0	1	292	0.00	29.908 
22:40	64.0	64.0	64.0	74	55.5	0	0	---	0.00	29.908 
22:45	63.7	63.7	63.7	74	55.3	0	1	292	0.00	29.914 
22:50	63.7	63.7	63.7	75	55.6	0	1	292	0.00	29.914 
22:55	63.4	63.4	63.4	75	55.3	0	1	292	0.00	29.914 
23:00	63.2	63.2	63.2	76	55.5	0	0	---	0.00	29.915 
23:05	62.9	62.9	62.9	77	55.6	0	0	---	0.00	29.915 
23:10	62.6	62.6	62.6	77	55.3	0	1	292	0.00	29.915 
23:15	62.3	62.3	62.3	77	55.0	1	4	315	0.00	29.923 
23:20	62.1	62.1	62.1	76	54.4	1	3	315	0.00	29.923 
23:25	61.8	61.8	61.8	76	54.1	0	3	315	0.00	29.923 
23:30	61.6	61.6	61.6	76	54.0	0	3	315	0.00	29.919 
23:35	61.3	61.3	61.3	77	54.0	0	1	315	0.00	29.919 
23:40	61.0	61.0	61.0	77	53.7	0	1	315	0.00	29.919 
23:45	60.9	60.9	60.9	77	53.6	0	1	315	0.00	29.922 
23:50	60.7	60.7	60.7	77	53.4	0	3	315	0.00	29.922 
23:55	60.5	60.5	60.5	77	53.2	0	2	315	0.00	29.922 

CoCoRaHS
IN-AL-39
A2 Web Hosting
Creative Commons License
GoDaddy
search engine by freefind advanced

loaded 2018-11-13 02:35:20 • last modified 2010-11-18 10:43:29
Privacy PolicyDisclaimer
• wx.awcolley.com is powered by PmWiki v.2002016 •
• all content (unless otherwise noted) © 2018 A W Colley